Log in Register

Login to your account

Username *
Password *
Remember Me

Create an account

Fields marked with an asterisk (*) are required.
Name *
Username *
Password *
Verify password *
Email *
Verify email *

Nous contacter

 Téléphone : +33 (0)4 79 54 41 81

Coordonnées détaillées et accès : cliquez ici

 
LFLB °C
    Ferienhaus Ostsee
[source: ADDS]
METAR
LFLB 231800Z AUTO VRB03KT 9999 // ////// 06/05 Q1025 =
TAF LFLB 231400Z 2315/2415 35008KT CAVOK PROB30 TEMPO 2403/2408 VRB02KT 0800 BCFG SCT001
TAF
TAF LFLB 231400Z 2315/2415 35008KT CAVOK PROB30 TEMPO 2403/2408 VRB02KT 0800 BCFG SCT001 =
SR / SS: 06:04 / 16:37 UTC (Lever/Coucher du soleil le 2021-10-23)
JSN Boot template designed by JoomlaShine.com